Time;durP1;ratioP1;P1;durP2;ratioP2;P2;SDS_P1;SDS_P2;PMS_P1;PMS_P2;Temp;Humidity;BMP_temperature;BMP_pressure;BME280_temperature;BME280_humidity;BME280_pressure;Samples;Min_cycle;Max_cycle;Signal;HPM_P1;HPM_P2
2023/04/25 00:00:14;;;;;;;12.90;4.45;;;;;;;-148.88;100.00;75937.69;5073641;28;20501;-76
2023/04/25 00:02:39;;;;;;;14.27;4.35;;;;;;;-148.88;100.00;75935.66;5055111;28;20030;-77
2023/04/25 00:05:05;;;;;;;15.25;3.80;;;;;;;-148.88;100.00;75955.97;5073268;28;20017;-77
2023/04/25 00:07:32;;;;;;;19.23;5.03;;;;;;;-148.88;100.00;75947.84;5055617;28;20386;-77
2023/04/25 00:09:57;;;;;;;16.00;4.68;;;;;;;-148.88;100.00;75949.88;5054184;28;20447;-76
2023/04/25 00:12:22;;;;;;;13.00;4.57;;;;;;;-148.88;100.00;75949.88;5054936;28;20521;-77
2023/04/25 00:14:49;;;;;;;17.38;4.82;;;;;;;-148.88;100.00;75947.84;5073085;28;20036;-77
2023/04/25 00:17:16;;;;;;;9.73;4.35;;;;;;;-148.88;100.00;75947.84;5072955;28;20035;-77
2023/04/25 00:19:41;;;;;;;15.13;4.32;;;;;;;-148.88;100.00;75943.78;5054912;28;20023;-77
2023/04/25 00:22:07;;;;;;;15.48;5.40;;;;;;;-148.88;100.00;75949.88;5073444;28;20028;-77
2023/04/25 00:24:32;;;;;;;15.10;4.63;;;;;;;-148.88;100.00;75943.78;5072806;28;20453;-77
2023/04/25 00:26:57;;;;;;;13.02;4.65;;;;;;;-148.88;100.00;75955.97;5072809;28;20056;-76
2023/04/25 00:29:23;;;;;;;13.82;4.63;;;;;;;-148.88;100.00;75964.09;5072839;28;20031;-76
2023/04/25 00:31:48;;;;;;;19.02;5.03;;;;;;;-148.88;100.00;75953.94;5072744;28;20364;-77
2023/04/25 00:34:13;;;;;;;18.38;5.30;;;;;;;-148.88;100.00;75958.00;5072645;28;20073;-77
2023/04/25 00:36:39;;;;;;;16.63;5.07;;;;;;;-148.88;100.00;75958.00;5072742;28;20032;-77
2023/04/25 00:39:04;;;;;;;12.52;4.57;;;;;;;-148.88;100.00;75962.06;5073057;28;20024;-77
2023/04/25 00:41:30;;;;;;;14.05;4.93;;;;;;;-148.88;100.00;75976.28;5054820;28;20502;-77
2023/04/25 00:43:59;;;;;;;12.88;5.43;;;;;;;-148.88;100.00;75972.22;5077214;22;20041;-87
2023/04/25 00:46:25;;;;;;;12.85;4.38;;;;;;;-148.88;100.00;75976.28;5035903;28;20029;-88
2023/04/25 00:48:52;;;;;;;15.10;4.78;;;;;;;-148.88;100.00;75960.03;5037093;28;20175;-89
2023/04/25 00:51:20;;;;;;;21.67;5.07;;;;;;;-148.88;100.00;75976.28;5036221;28;20513;-89
2023/04/25 00:53:47;;;;;;;17.33;5.25;;;;;;;-148.88;100.00;75982.38;5053491;28;20024;-87
2023/04/25 00:58:43;;;;;;;16.50;5.20;;;;;;;-148.88;100.00;75978.31;5051890;28;20045;-77
2023/04/25 01:01:10;;;;;;;14.25;5.13;;;;;;;-148.88;100.00;75992.53;5035267;28;20028;-77
2023/04/25 01:03:40;;;;;;;18.38;5.28;;;;;;;-148.88;100.00;75988.47;5052459;28;20040;-77
2023/04/25 01:06:08;;;;;;;21.73;6.57;;;;;;;-148.88;100.00;75996.59;5034385;28;20049;-78
2023/04/25 01:08:33;;;;;;;12.07;4.90;;;;;;;-148.88;100.00;76010.81;5052545;28;20025;-77
2023/04/25 01:10:59;;;;;;;14.40;5.32;;;;;;;-148.88;100.00;76012.84;5055080;28;20083;-78
2023/04/25 01:13:24;;;;;;;20.60;6.20;;;;;;;-148.88;100.00;76004.72;5039897;28;20043;-78
2023/04/25 01:15:49;;;;;;;13.63;4.50;;;;;;;-148.88;100.00;75988.47;5040572;28;20021;-78
2023/04/25 01:18:16;;;;;;;14.07;5.25;;;;;;;-148.88;100.00;75988.47;5059242;28;20032;-78
2023/04/25 01:20:41;;;;;;;26.00;6.40;;;;;;;-148.88;100.00;75996.59;5045015;28;20112;-78
2023/04/25 01:23:07;;;;;;;17.10;5.35;;;;;;;-148.88;100.00;75996.59;5063275;28;20053;-78
2023/04/25 01:25:33;;;;;;;15.32;6.25;;;;;;;-148.88;100.00;76004.72;5039805;28;20017;-78
2023/04/25 01:27:59;;;;;;;13.32;4.57;;;;;;;-148.88;100.00;76012.84;5058030;28;20206;-78
2023/04/25 01:30:26;;;;;;;25.17;5.90;;;;;;;-148.88;100.00;76004.72;5059343;28;20036;-79
2023/04/25 01:32:53;;;;;;;12.65;4.85;;;;;;;-148.88;100.00;76006.75;5059683;28;20063;-78
2023/04/25 01:35:19;;;;;;;12.82;4.68;;;;;;;-148.88;100.00;76010.81;5061839;28;20081;-78
2023/04/25 01:37:44;;;;;;;19.25;4.88;;;;;;;-148.88;100.00;76010.81;5045064;28;20067;-78
2023/04/25 01:40:11;;;;;;;10.90;4.65;;;;;;;-148.88;100.00;76008.78;5062362;28;20036;-78
2023/04/25 01:42:38;;;;;;;13.95;4.80;;;;;;;-148.88;100.00;76016.91;5044620;28;20024;-79
2023/04/25 01:45:05;;;;;;;15.65;4.07;;;;;;;-148.88;100.00;76012.84;5063214;28;20013;-78
2023/04/25 01:47:30;;;;;;;10.07;3.95;;;;;;;-148.88;100.00;76023.00;5044654;28;20108;-78
2023/04/25 01:49:56;;;;;;;15.73;4.90;;;;;;;-148.88;100.00;76025.03;5044605;28;20100;-78
2023/04/25 01:52:21;;;;;;;18.27;4.45;;;;;;;-148.88;100.00;76029.09;5062155;28;20021;-78
2023/04/25 01:54:47;;;;;;;11.00;3.67;;;;;;;-148.88;100.00;76033.16;5061885;28;20059;-78
2023/04/25 01:57:13;;;;;;;11.57;4.68;;;;;;;-148.88;100.00;76029.09;5043476;28;20339;-78
2023/04/25 01:59:39;;;;;;;13.82;4.05;;;;;;;-148.88;100.00;76031.13;5060375;28;20549;-78
2023/04/25 02:02:05;;;;;;;11.80;3.83;;;;;;;-148.88;100.00;76039.25;5039804;28;20036;-78
2023/04/25 02:04:30;;;;;;;9.95;3.97;;;;;;;-148.88;100.00;76043.31;5040460;28;20025;-78
2023/04/25 02:06:55;;;;;;;10.70;4.35;;;;;;;-148.88;100.00;76033.16;5040276;28;20017;-78
2023/04/25 02:09:21;;;;;;;12.57;4.55;;;;;;;-148.88;100.00;76041.28;5058876;28;20373;-78
2023/04/25 02:11:46;;;;;;;9.77;4.13;;;;;;;-148.88;100.00;76041.28;5060101;28;20028;-77
2023/04/25 02:14:11;;;;;;;16.95;4.18;;;;;;;-148.88;100.00;76037.22;5041619;28;20025;-78
2023/04/25 02:16:39;;;;;;;12.52;4.22;;;;;;;-148.88;100.00;76049.41;5059440;28;20025;-78
2023/04/25 02:19:05;;;;;;;15.65;4.95;;;;;;;-148.88;100.00;76045.34;5040531;28;20036;-78
2023/04/25 02:21:31;;;;;;;17.45;4.75;;;;;;;-148.88;100.00;76049.41;5041934;28;20084;-78
2023/04/25 02:24:33;;;;;;;12.30;4.20;;;;;;;-148.88;100.00;76049.41;5042426;28;20088;-78
2023/04/25 02:27:07;;;;;;;11.40;4.22;;;;;;;-148.88;100.00;76041.28;5060035;28;20021;-78
2023/04/25 02:29:36;;;;;;;18.13;4.53;;;;;;;-148.88;100.00;76043.31;5060130;28;20055;-78
2023/04/25 02:32:01;;;;;;;18.67;4.90;;;;;;;-148.88;100.00;76049.41;5039184;28;20075;-78
2023/04/25 02:34:27;;;;;;;17.20;4.38;;;;;;;-148.88;100.00;76063.63;5059784;28;20025;-78
2023/04/25 02:36:52;;;;;;;25.02;5.13;;;;;;;-148.88;100.00;76059.56;5058572;28;20029;-77
2023/04/25 02:39:17;;;;;;;22.20;4.35;;;;;;;-148.88;100.00;76059.56;5057622;28;20088;-78
2023/04/25 02:41:43;;;;;;;18.45;4.43;;;;;;;-148.88;100.00;76065.66;5057644;28;20499;-77
2023/04/25 02:44:08;;;;;;;15.38;4.07;;;;;;;-148.88;100.00;76065.66;5039924;28;20033;-78
2023/04/25 02:46:33;;;;;;;15.98;4.50;;;;;;;-148.88;100.00;76063.63;5041470;28;20028;-78
2023/04/25 02:48:58;;;;;;;15.23;3.75;;;;;;;-148.88;100.00;76061.59;5059649;28;20025;-79
2023/04/25 02:51:24;;;;;;;17.25;4.25;;;;;;;-148.88;100.00;76065.66;5040656;28;20062;-78
2023/04/25 02:53:50;;;;;;;24.05;4.80;;;;;;;-148.88;100.00;76073.78;5040883;28;20021;-77
2023/04/25 02:56:15;;;;;;;26.75;4.88;;;;;;;-148.88;100.00;76077.84;5058533;28;20087;-78
2023/04/25 02:58:40;;;;;;;18.83;4.35;;;;;;;-148.88;100.00;76085.97;5057840;28;20112;-78
2023/04/25 03:01:06;;;;;;;19.52;3.97;;;;;;;-148.88;100.00;76085.97;5040853;28;20056;-78
2023/04/25 03:03:31;;;;;;;18.38;4.90;;;;;;;-148.88;100.00;76090.03;5058869;28;20086;-78
2023/04/25 03:05:56;;;;;;;17.02;3.92;;;;;;;-148.88;100.00;76100.19;5040675;28;20044;-77
2023/04/25 03:08:22;;;;;;;16.55;4.28;;;;;;;-148.88;100.00;76098.16;5058082;28;20048;-78
2023/04/25 03:10:48;;;;;;;16.52;3.60;;;;;;;-148.88;100.00;76102.22;5040214;28;20025;-78
2023/04/25 03:13:13;;;;;;;8.40;3.40;;;;;;;-148.88;100.00;76104.25;5039477;28;20027;-77
2023/04/25 03:15:38;;;;;;;16.60;3.65;;;;;;;-148.88;100.00;76102.22;5056555;28;20075;-77
2023/04/25 03:18:04;;;;;;;18.38;4.15;;;;;;;-148.88;100.00;76106.28;5056600;28;20033;-78
2023/04/25 03:20:29;;;;;;;14.50;3.42;;;;;;;-148.88;100.00;76106.28;5057208;28;20048;-77
2023/04/25 03:22:55;;;;;;;20.95;3.72;;;;;;;-148.88;100.00;76100.19;5039563;28;20115;-78
2023/04/25 03:25:21;;;;;;;21.90;3.85;;;;;;;-148.88;100.00;76106.28;5055682;28;20047;-76
2023/04/25 03:27:46;;;;;;;16.55;4.80;;;;;;;-148.88;100.00;76114.41;5053866;28;20476;-77
2023/04/25 03:30:12;;;;;;;17.92;4.15;;;;;;;-148.88;100.00;76110.34;5054096;28;20029;-77
2023/04/25 03:32:37;;;;;;;14.07;4.38;;;;;;;-148.88;100.00;76122.56;5054337;28;20078;-77
2023/04/25 03:35:03;;;;;;;13.70;3.53;;;;;;;-148.88;100.00;76120.53;5053853;28;20059;-77
2023/04/25 03:37:28;;;;;;;20.30;4.55;;;;;;;-148.88;100.00;76118.47;5053973;28;20075;-76
2023/04/25 03:39:53;;;;;;;12.95;3.97;;;;;;;-148.88;100.00;76130.69;5053580;28;20059;-77
2023/04/25 03:42:19;;;;;;;18.70;3.35;;;;;;;-148.88;100.00;76118.47;5053929;28;20487;-77
2023/04/25 03:44:45;;;;;;;19.23;3.95;;;;;;;-148.88;100.00;76132.72;5054206;28;20017;-77
2023/04/25 03:47:10;;;;;;;17.98;5.32;;;;;;;-148.88;100.00;76134.72;5054167;28;20035;-77
2023/04/25 03:49:35;;;;;;;22.85;5.90;;;;;;;-148.88;100.00;76138.81;5036304;28;20318;-77
2023/04/25 03:52:01;;;;;;;15.13;4.75;;;;;;;-148.88;100.00;76146.94;5054877;28;20029;-77
2023/04/25 03:54:27;;;;;;;24.08;4.85;;;;;;;-148.88;100.00;76148.97;5036389;28;20024;-77
2023/04/25 03:56:52;;;;;;;17.05;4.93;;;;;;;-148.88;100.00;76153.03;5054311;28;20442;-77
2023/04/25 03:59:17;;;;;;;21.70;4.72;;;;;;;-148.88;100.00;76146.94;5053044;28;20113;-77
2023/04/25 04:01:42;;;;;;;14.88;3.60;;;;;;;-148.88;100.00;76153.03;5053117;28;20498;-77
2023/04/25 04:04:08;;;;;;;19.20;4.20;;;;;;;-148.88;100.00;76171.31;5052913;28;20024;-77
2023/04/25 04:06:33;;;;;;;11.07;4.25;;;;;;;-148.88;100.00;76171.31;5052775;28;20023;-76
2023/04/25 04:08:59;;;;;;;14.90;3.97;;;;;;;-148.88;100.00;76163.19;5034743;28;20021;-77
2023/04/25 04:11:24;;;;;;;18.85;4.82;;;;;;;-148.88;100.00;76173.34;5052665;28;20051;-77
2023/04/25 04:13:49;;;;;;;13.45;3.72;;;;;;;-148.88;100.00;76175.38;5034890;28;20443;-77
2023/04/25 04:16:15;;;;;;;14.10;3.42;;;;;;;-148.88;100.00;76185.53;5034812;28;20024;-77
2023/04/25 04:18:40;;;;;;;14.70;3.70;;;;;;;-148.88;100.00;76187.56;5034720;28;20025;-77
2023/04/25 04:21:05;;;;;;;16.08;3.75;;;;;;;-148.88;100.00;76193.66;5052627;28;20035;-77
2023/04/25 04:23:31;;;;;;;24.52;4.60;;;;;;;-148.88;100.00;76195.69;5052462;28;20025;-77
2023/04/25 04:25:56;;;;;;;18.45;3.70;;;;;;;-148.88;100.00;76191.63;5035573;28;20021;-77
2023/04/25 04:28:21;;;;;;;12.48;3.20;;;;;;;-148.88;100.00;76191.63;5035780;28;20032;-77
2023/04/25 04:30:47;;;;;;;14.77;3.45;;;;;;;-148.88;100.00;76195.69;5054150;28;20108;-77
2023/04/25 04:33:13;;;;;;;22.10;3.90;;;;;;;-148.88;100.00;76191.63;5053551;28;20399;-77
2023/04/25 04:35:38;;;;;;;18.80;4.55;;;;;;;-148.88;100.00;76211.94;5053037;28;20024;-77
2023/04/25 04:38:04;;;;;;;11.60;3.60;;;;;;;-148.88;100.00;76203.81;5035953;28;20033;-76
2023/04/25 04:40:31;;;;;;;14.52;4.15;;;;;;;-148.88;100.00;76213.97;5053584;28;20040;-78
2023/04/25 04:42:57;;;;;;;16.73;3.70;;;;;;;-148.88;100.00;76207.88;5036718;28;20044;-78
2023/04/25 04:45:23;;;;;;;19.80;5.32;;;;;;;-148.88;100.00;76199.75;5053567;28;20044;-76
2023/04/25 04:47:49;;;;;;;15.38;4.25;;;;;;;-148.88;100.00;76197.72;5053504;28;20072;-78
2023/04/25 04:50:14;;;;;;;13.70;3.75;;;;;;;-148.88;100.00;76207.88;5053286;28;20501;-77
2023/04/25 04:52:40;;;;;;;22.05;4.60;;;;;;;-148.88;100.00;76216.00;5053068;28;20391;-76
2023/04/25 04:55:05;;;;;;;17.33;4.60;;;;;;;-148.88;100.00;76199.75;5053709;28;20048;-77
2023/04/25 04:57:32;;;;;;;12.50;3.42;;;;;;;-148.88;100.00;76211.94;5057243;28;20028;-77
2023/04/25 04:59:58;;;;;;;9.88;3.88;;;;;;;-148.88;100.00;76203.81;5057288;28;20055;-77
2023/04/25 05:02:23;;;;;;;12.30;3.78;;;;;;;-148.88;100.00;76218.03;5036017;28;20487;-76
2023/04/25 05:04:50;;;;;;;15.52;3.92;;;;;;;-148.88;100.00;76224.13;5056515;28;20013;-77
2023/04/25 05:07:15;;;;;;;12.88;4.38;;;;;;;-148.88;100.00;76222.09;5038103;28;20120;-78
2023/04/25 05:09:40;;;;;;;13.77;4.30;;;;;;;-148.88;100.00;76220.06;5056137;28;20157;-76
2023/04/25 05:12:06;;;;;;;19.08;5.60;;;;;;;-148.88;100.00;76216.00;5037068;28;20075;-76
2023/04/25 05:14:31;;;;;;;18.35;6.00;;;;;;;-148.88;100.00;76213.97;5037710;28;20135;-76
2023/04/25 05:16:57;;;;;;;16.50;3.35;;;;;;;-148.88;100.00;76226.16;5055652;28;20060;-76
2023/04/25 05:19:23;;;;;;;15.68;5.40;;;;;;;-148.88;100.00;76226.16;5055916;28;20048;-76
2023/04/25 05:21:48;;;;;;;10.95;4.50;;;;;;;-148.88;100.00;76220.06;5056146;28;20484;-76
2023/04/25 05:24:14;;;;;;;8.93;4.32;;;;;;;-148.88;100.00;76240.38;5055666;28;20032;-76
2023/04/25 05:26:39;;;;;;;16.92;3.75;;;;;;;-148.88;100.00;76211.94;5037809;28;20021;-76
2023/04/25 05:29:05;;;;;;;20.02;4.78;;;;;;;-148.88;100.00;76211.94;5037878;28;20024;-76
2023/04/25 05:31:30;;;;;;;15.40;4.03;;;;;;;-148.88;100.00;76224.13;5037722;28;20434;-76
2023/04/25 05:33:56;;;;;;;16.52;3.72;;;;;;;-148.88;100.00;76232.25;5055495;28;20016;-76
2023/04/25 05:36:21;;;;;;;17.50;4.30;;;;;;;-148.88;100.00;76232.25;5055303;28;20407;-76
2023/04/25 05:38:46;;;;;;;17.70;3.60;;;;;;;-148.88;100.00;76234.28;5055461;28;20108;-77
2023/04/25 05:41:12;;;;;;;16.90;3.95;;;;;;;-148.88;100.00;76228.19;5051231;28;20376;-77
2023/04/25 05:43:37;;;;;;;17.02;4.03;;;;;;;-148.88;100.00;76226.16;5055273;28;20155;-76
2023/04/25 05:46:02;;;;;;;12.93;3.83;;;;;;;-148.88;100.00;76216.00;5053635;28;20134;-77
2023/04/25 05:48:28;;;;;;;12.75;3.70;;;;;;;-148.88;100.00;76218.03;5053802;28;20020;-76
2023/04/25 05:50:53;;;;;;;17.58;3.47;;;;;;;-148.88;100.00;76232.25;5054768;28;20023;-76
2023/04/25 05:53:20;;;;;;;19.83;3.25;;;;;;;-148.88;100.00;76236.31;5054636;28;20103;-76
2023/04/25 05:55:46;;;;;;;14.10;3.80;;;;;;;-148.88;100.00;76238.34;5054616;28;20127;-77
2023/04/25 05:58:11;;;;;;;15.48;3.75;;;;;;;-148.88;100.00;76244.44;5054628;28;20033;-76
2023/04/25 06:00:37;;;;;;;16.85;4.32;;;;;;;-148.88;100.00;76244.44;5054669;28;20036;-76
2023/04/25 06:03:03;;;;;;;16.13;3.65;;;;;;;-148.88;100.00;76266.78;5054710;28;20032;-76
2023/04/25 06:05:28;;;;;;;14.52;4.03;;;;;;;-148.88;100.00;76248.50;5054448;28;20545;-76
2023/04/25 06:07:53;;;;;;;18.35;3.85;;;;;;;-148.88;100.00;76242.41;5053161;28;20560;-76
2023/04/25 06:10:19;;;;;;;15.32;3.78;;;;;;;-148.88;100.00;76240.38;5036779;28;20048;-76
2023/04/25 06:12:44;;;;;;;13.95;3.75;;;;;;;-148.88;100.00;76244.44;5036790;28;20119;-75
2023/04/25 06:15:10;;;;;;;17.42;3.80;;;;;;;-148.88;100.00;76240.38;5054505;28;20044;-77
2023/04/25 06:17:35;;;;;;;19.75;3.90;;;;;;;-148.88;100.00;76228.19;5054702;28;20045;-76
2023/04/25 06:20:01;;;;;;;18.20;3.45;;;;;;;-148.88;100.00;76236.31;5054747;28;20024;-76
2023/04/25 06:22:26;;;;;;;10.57;3.83;;;;;;;-148.88;100.00;76224.13;5054725;28;20028;-75
2023/04/25 06:24:52;;;;;;;12.23;3.63;;;;;;;-148.88;100.00;76232.25;5054535;28;20012;-76
2023/04/25 06:27:17;;;;;;;13.68;3.33;;;;;;;-148.88;100.00;76240.38;5054469;28;20029;-75
2023/04/25 06:29:42;;;;;;;21.60;3.83;;;;;;;-148.88;100.00;76252.56;5052219;28;20027;-75
2023/04/25 06:32:08;;;;;;;13.18;3.72;;;;;;;-148.88;100.00;76232.25;5054202;28;20029;-76
2023/04/25 06:34:33;;;;;;;15.23;4.10;;;;;;;-148.88;100.00;76228.19;5053974;28;20483;-76
2023/04/25 06:36:58;;;;;;;8.88;3.25;;;;;;;-148.88;100.00;76228.19;5036084;28;20047;-76
2023/04/25 06:39:25;;;;;;;11.05;3.38;;;;;;;-148.88;100.00;76222.09;5054102;28;20025;-76
2023/04/25 06:41:50;;;;;;;13.77;3.17;;;;;;;-148.88;100.00;76216.00;5035819;28;20051;-77
2023/04/25 06:44:15;;;;;;;10.82;2.80;;;;;;;-148.88;100.00;76224.13;5053930;28;20452;-76
2023/04/25 06:46:41;;;;;;;14.90;3.70;;;;;;;-148.88;100.00;76216.00;5054004;28;20199;-75
2023/04/25 06:49:06;;;;;;;25.63;3.42;;;;;;;-148.88;100.00;76209.91;5053984;28;20020;-75
2023/04/25 06:51:31;;;;;;;14.27;3.38;;;;;;;-148.88;100.00;76224.13;5054008;28;20381;-76
2023/04/25 06:53:57;;;;;;;13.25;3.17;;;;;;;-148.88;100.00;76209.91;5053880;28;20475;-75
2023/04/25 06:56:23;;;;;;;14.13;3.65;;;;;;;-148.88;100.00;76207.88;5053840;28;20031;-75
2023/04/25 06:58:48;;;;;;;21.33;3.58;;;;;;;-148.88;100.00;76183.50;5053902;28;20032;-75
2023/04/25 07:01:14;;;;;;;7.65;3.10;;;;;;;-148.88;100.00;76195.69;5053882;28;20021;-75
2023/04/25 07:03:39;;;;;;;13.07;3.40;;;;;;;-148.88;100.00;76197.72;5036011;28;20027;-75
2023/04/25 07:06:04;;;;;;;17.45;2.50;;;;;;;-148.88;100.00;76189.59;5053975;28;20027;-75
2023/04/25 07:08:30;;;;;;;18.35;3.70;;;;;;;-148.88;100.00;76175.38;5053738;28;20394;-75
2023/04/25 07:10:55;;;;;;;15.98;2.88;;;;;;;-148.88;100.00;76171.31;5054397;28;20021;-75
2023/04/25 07:13:20;;;;;;;10.63;2.90;;;;;;;-148.88;100.00;76153.03;5054207;28;20526;-76
2023/04/25 07:15:47;;;;;;;9.55;2.20;;;;;;;-148.88;100.00;76177.41;5053636;28;20021;-76
2023/04/25 07:18:13;;;;;;;14.60;3.33;;;;;;;-148.88;100.00;76187.56;5053373;28;20029;-75
2023/04/25 07:20:38;;;;;;;11.35;2.60;;;;;;;-148.88;100.00;76187.56;5053854;28;20119;-76
2023/04/25 07:23:04;;;;;;;7.38;2.60;;;;;;;-148.88;100.00;76195.69;5053601;28;20061;-76
2023/04/25 07:25:30;;;;;;;8.13;2.47;;;;;;;-148.88;100.00;76187.56;5035611;28;20025;-75
2023/04/25 07:27:55;;;;;;;7.55;2.47;;;;;;;-148.88;100.00;76171.31;5035562;28;20028;-75
2023/04/25 07:30:21;;;;;;;10.45;2.58;;;;;;;-148.88;99.38;76171.31;5053573;28;20021;-76
2023/04/25 07:32:47;;;;;;;11.85;2.47;;;;;;;-148.88;98.57;76175.38;5053373;28;20509;-75
2023/04/25 07:35:12;;;;;;;16.00;2.60;;;;;;;-148.88;100.00;76167.25;5053168;28;20479;-75
2023/04/25 07:37:37;;;;;;;9.13;2.50;;;;;;;-148.88;100.00;76138.81;5053241;28;20392;-75
2023/04/25 07:40:04;;;;;;;11.45;2.53;;;;;;;-148.88;95.40;76175.38;5053191;28;20119;-75
2023/04/25 07:42:30;;;;;;;6.90;1.90;;;;;;;-148.88;96.87;76171.31;5053033;28;20040;-76
2023/04/25 07:44:55;;;;;;;11.88;2.58;;;;;;;-148.88;98.42;76155.06;5052995;28;20017;-75
2023/04/25 07:47:20;;;;;;;10.52;2.60;;;;;;;-148.88;99.59;76140.84;5053112;28;20036;-75
2023/04/25 07:49:45;;;;;;;8.18;2.75;;;;;;;-148.88;97.79;76110.34;5052922;28;20021;-76
2023/04/25 07:52:11;;;;;;;13.85;2.38;;;;;;;-148.88;96.58;76130.69;5052843;28;20366;-76
2023/04/25 07:54:36;;;;;;;9.85;2.20;;;;;;;-148.88;92.45;76144.91;5052681;28;20017;-75
2023/04/25 07:57:02;;;;;;;7.10;2.03;;;;;;;-148.88;92.02;76100.19;5052609;28;20128;-75
2023/04/25 07:59:28;;;;;;;10.15;2.22;;;;;;;-148.88;94.50;76061.59;5052863;28;20152;-76
2023/04/25 08:01:53;;;;;;;9.18;2.00;;;;;;;-148.88;87.73;76106.28;5034704;28;20029;-76
2023/04/25 08:04:19;;;;;;;7.57;1.98;;;;;;;-148.88;89.67;76108.31;5052716;28;20071;-76
2023/04/25 08:06:45;;;;;;;16.83;3.88;;;;;;;-148.88;87.86;76142.88;5052459;28;20021;-76
2023/04/25 08:09:10;;;;;;;10.35;1.88;;;;;;;-148.88;82.49;76114.41;5052567;28;20505;-76
2023/04/25 08:11:36;;;;;;;6.18;1.55;;;;;;;-148.88;82.50;76102.22;5034498;28;20055;-76
2023/04/25 08:14:01;;;;;;;14.73;1.88;;;;;;;-148.88;82.79;76092.06;5052260;28;20103;-76
2023/04/25 08:16:27;;;;;;;11.60;1.83;;;;;;;-148.88;87.23;76102.22;5052185;28;20032;-76
2023/04/25 08:18:52;;;;;;;7.35;2.03;;;;;;;-148.88;86.75;76128.66;5052485;28;20116;-76
2023/04/25 08:21:18;;;;;;;8.38;2.28;;;;;;;-148.88;87.84;76114.41;5034289;28;20029;-76
2023/04/25 08:23:43;;;;;;;9.23;1.75;;;;;;;-148.88;90.73;76126.59;5034244;28;20499;-75
2023/04/25 08:26:08;;;;;;;9.30;2.33;;;;;;;-148.88;88.13;76167.25;5052013;28;20021;-76
2023/04/25 08:28:33;;;;;;;8.10;1.83;;;;;;;-148.88;88.16;76157.09;5052146;28;20029;-76
2023/04/25 08:30:59;;;;;;;6.90;1.58;;;;;;;-148.88;85.37;76171.31;5051324;28;20155;-76
2023/04/25 08:33:24;;;;;;;4.85;1.65;;;;;;;-148.88;86.82;76181.47;5052133;28;20052;-76
2023/04/25 08:35:50;;;;;;;7.85;1.83;;;;;;;-148.88;86.89;76142.88;5034007;28;20187;-76
2023/04/25 08:38:17;;;;;;;10.52;2.65;;;;;;;-148.88;89.34;76112.41;5034246;28;20183;-76
2023/04/25 08:40:43;;;;;;;6.72;2.22;;;;;;;-148.88;85.93;76092.06;5034147;28;20112;-76
2023/04/25 08:43:13;;;;;;;6.95;1.65;;;;;;;-148.88;82.59;76096.13;5052111;28;20056;-76
2023/04/25 08:45:42;;;;;;;7.15;1.60;;;;;;;-148.88;83.23;76102.22;5052040;28;20406;-76
2023/04/25 08:48:16;;;;;;;11.73;1.98;;;;;;;-148.88;82.19;76118.47;5052151;28;20025;-76
2023/04/25 08:50:50;;;;;;;5.68;1.77;;;;;;;-148.88;83.24;76146.94;5052064;28;20025;-77
2023/04/25 08:53:18;;;;;;;8.00;1.50;;;;;;;-148.88;82.31;76175.38;5052115;28;20078;-76
2023/04/25 08:55:44;;;;;;;9.93;1.58;;;;;;;-148.88;83.27;76185.53;5034052;28;20509;-76
2023/04/25 08:58:11;;;;;;;7.15;1.80;;;;;;;-148.88;83.97;76173.34;5052025;28;20033;-76
2023/04/25 09:00:36;;;;;;;4.13;1.40;;;;;;;-148.88;82.64;76179.44;5052490;28;20399;-76
2023/04/25 09:03:02;;;;;;;8.95;1.65;;;;;;;-148.88;81.12;76167.25;5052094;28;20031;-76
2023/04/25 09:05:28;;;;;;;4.72;1.77;;;;;;;-148.88;82.59;76130.69;5052223;28;20472;-76
2023/04/25 09:07:53;;;;;;;7.53;1.67;;;;;;;-148.88;79.39;76061.59;5052014;28;20029;-76
2023/04/25 09:10:19;;;;;;;10.90;1.63;;;;;;;-148.88;79.93;76075.81;5034288;28;20032;-76
2023/04/25 09:12:44;;;;;;;3.67;1.20;;;;;;;-148.88;78.33;76057.53;5052079;28;20313;-76
2023/04/25 09:15:12;;;;;;;6.65;1.55;;;;;;;-148.88;80.28;76012.84;5033991;28;20028;-75
2023/04/25 09:17:40;;;;;;;10.68;2.53;;;;;;;-148.88;77.52;76020.97;5052014;28;20017;-76
2023/04/25 09:20:08;;;;;;;8.38;1.65;;;;;;;-148.88;75.71;76025.03;5052040;28;20051;-76
2023/04/25 09:22:34;;;;;;;6.88;2.08;;;;;;;-148.88;72.03;76059.56;5051975;28;20432;-76
2023/04/25 09:25:04;;;;;;;1.88;0.80;;;;;;;-148.88;70.11;76106.28;5051824;28;20106;-76
2023/04/25 09:27:29;;;;;;;8.38;2.38;;;;;;;-148.88;72.30;76085.97;5051878;28;20049;-76
2023/04/25 09:30:01;;;;;;;9.18;1.40;;;;;;;-148.88;71.43;76118.47;5052111;28;20036;-76
2023/04/25 09:32:27;;;;;;;6.65;1.60;;;;;;;-148.88;70.53;76132.72;5051788;28;20032;-76
2023/04/25 09:34:54;;;;;;;6.47;1.20;;;;;;;-148.88;70.57;76179.44;5033720;28;20056;-75
2023/04/25 09:37:22;;;;;;;6.47;1.27;;;;;;;-148.88;74.58;76195.69;5051717;28;20033;-75
2023/04/25 09:39:49;;;;;;;5.05;1.13;;;;;;;-148.88;75.33;76218.03;5033951;28;20024;-75
2023/04/25 09:42:16;;;;;;;8.63;1.35;;;;;;;-148.88;77.15;76207.88;5053842;28;20028;-76
2023/04/25 09:44:43;;;;;;;8.38;1.13;;;;;;;-148.88;76.25;76183.50;5055105;28;20094;-75
2023/04/25 09:47:17;;;;;;;6.75;1.10;;;;;;;-148.88;73.55;76102.22;5055057;28;20029;-76
2023/04/25 09:49:43;;;;;;;4.00;0.90;;;;;;;-148.88;68.86;76065.66;5055339;28;20040;-75
2023/04/25 09:52:13;;;;;;;4.22;0.93;;;;;;;-148.88;64.46;76033.16;5055060;28;20078;-76
2023/04/25 09:54:39;;;;;;;2.65;0.82;;;;;;;-148.88;65.65;76010.81;5055273;28;20106;-76
2023/04/25 09:57:19;;;;;;;4.03;0.95;;;;;;;-148.88;61.65;76069.72;5055155;28;20052;-75
2023/04/25 09:59:46;;;;;;;6.47;1.60;;;;;;;-148.88;66.53;76063.63;5055130;28;20052;-76
2023/04/25 10:02:14;;;;;;;2.92;0.90;;;;;;;-148.88;66.28;76069.72;5036929;28;20035;-76
2023/04/25 10:04:41;;;;;;;3.15;1.20;;;;;;;-148.88;67.63;76053.47;5054653;28;20111;-76
2023/04/25 10:07:07;;;;;;;4.70;0.93;;;;;;;-148.88;67.99;76053.47;5054704;28;20128;-76
2023/04/25 10:09:36;;;;;;;7.88;0.90;;;;;;;-148.88;65.08;75974.25;5054655;28;20036;-75
2023/04/25 10:12:03;;;;;;;8.02;1.35;;;;;;;-148.88;66.08;75935.66;5054692;28;20035;-76
2023/04/25 10:14:31;;;;;;;4.40;1.23;;;;;;;-148.88;63.57;75913.31;5054497;28;20031;-76
2023/04/25 10:17:00;;;;;;;3.88;1.20;;;;;;;-148.88;62.48;75872.69;5054352;28;20405;-76
2023/04/25 10:19:26;;;;;;;5.55;1.35;;;;;;;-148.88;60.63;75819.88;5054691;28;20048;-76
2023/04/25 10:21:57;;;;;;;6.45;2.08;;;;;;;-148.88;57.63;75783.31;5054778;28;20092;-76
2023/04/25 10:24:25;;;;;;;4.10;0.98;;;;;;;-148.88;60.37;75769.09;5054479;28;20112;-76
2023/04/25 10:26:50;;;;;;;4.78;1.30;;;;;;;-148.88;60.50;75771.13;5054478;28;20075;-76
2023/04/25 10:29:26;;;;;;;7.38;2.28;;;;;;;-148.88;57.54;75781.28;5054478;28;20025;-76
2023/04/25 10:31:51;;;;;;;6.78;1.85;;;;;;;-148.88;57.41;75819.88;5036548;28;20025;-76
2023/04/25 10:34:18;;;;;;;5.47;1.45;;;;;;;-148.88;59.38;75943.78;5054598;28;20025;-76
2023/04/25 10:36:50;;;;;;;9.43;2.10;;;;;;;-148.88;57.84;75964.09;5054519;28;20021;-76
2023/04/25 10:39:22;;;;;;;13.63;2.22;;;;;;;-148.88;59.04;76020.97;5054673;28;20048;-76
2023/04/25 10:41:52;;;;;;;7.97;1.90;;;;;;;-148.88;59.96;76045.34;5054311;28;20052;-76
2023/04/25 10:44:18;;;;;;;5.07;1.75;;;;;;;-148.88;60.37;76098.16;5054533;28;20086;-76
2023/04/25 10:46:45;;;;;;;6.78;1.45;;;;;;;-148.88;67.36;76114.41;5054518;28;20021;-76
2023/04/25 10:49:10;;;;;;;5.82;1.30;;;;;;;-148.88;69.43;76128.66;5036319;28;20025;-75
2023/04/25 10:51:36;;;;;;;5.90;0.98;;;;;;;-148.88;65.62;76155.06;5054476;28;20028;-76
2023/04/25 10:54:02;;;;;;;4.25;1.50;;;;;;;-148.88;64.33;76171.31;5053286;28;20029;-76
2023/04/25 10:56:31;;;;;;;5.03;0.80;;;;;;;-148.88;65.93;76183.50;5053868;28;20083;-76
2023/04/25 10:59:09;;;;;;;4.75;1.27;;;;;;;-148.88;68.56;76197.72;5053997;28;20017;-76
2023/04/25 11:01:45;;;;;;;4.20;0.98;;;;;;;-148.88;71.21;76216.00;5053787;28;20029;-75
2023/04/25 11:04:21;;;;;;;8.70;2.17;;;;;;;-148.88;70.55;76195.69;5035775;28;20082;-76